Date,TemperatureHighF,TemperatureAvgF,TemperatureLowF,DewpointHighF,DewpointAvgF,DewpointLowF,HumidityHigh,HumidityAvg,HumidityLow,PressureMaxIn,PressureMinIn,WindSpeedMaxMPH,WindSpeedAvgMPH,GustSpeedMaxMPH,PrecipitationSumIn
2013-1-1,50.3,42.1,37.2,43.3,38.6,33.3,100,88,69,30.54,30.46,8,1,9,0.00
2013-1-2,62.8,45.0,37.5,44.4,35.7,30.8,86,71,39,30.50,30.41,2,0,2,0.00
2013-1-3,40.2,40.2,40.2,32.5,32.5,32.5,74,74,74,30.42,30.42,0,0,0,0.00
2013-1-4,43.2,43.2,43.2,35.2,35.2,35.2,73,73,73,30.52,30.52,0,0,0,0.00
2013-1-5,53.9,48.2,43.0,49.0,46.4,38.3,100,94,81,30.54,30.35,6,0,6,0.24
2013-1-6,48.0,43.9,38.6,46.4,43.5,38.6,100,99,89,30.48,30.32,12,0,12,0.15
2013-1-7,55.7,45.6,38.3,53.1,45.0,38.1,100,98,86,30.56,30.45,5,0,6,0.00
2013-1-8,61.9,52.5,46.0,51.0,47.5,42.8,99,84,63,30.52,30.41,13,1,13,0.00
2013-1-9,51.5,45.3,38.5,50.1,44.5,38.5,100,97,84,30.42,30.31,9,0,13,0.16
2013-1-10,46.7,40.2,36.2,40.9,38.2,35.5,100,93,74,30.48,30.37,11,1,15,0.03
2013-1-11,48.2,41.1,35.0,43.0,38.6,33.7,99,91,73,30.55,30.42,9,1,10,0.00
2013-1-12,49.3,39.5,32.9,40.3,34.3,25.5,99,83,48,30.53,30.42,8,1,8,0.00
2013-1-13,48.9,37.9,30.7,32.4,29.2,21.4,93,73,40,30.54,30.45,10,0,10,0.00
2013-1-14,48.8,40.2,34.9,29.2,22.9,16.5,78,51,38,30.66,30.49,12,1,12,0.00
2013-1-15,55.6,41.9,34.0,34.8,31.0,27.4,81,67,41,30.74,30.66,9,0,9,0.00
2013-1-16,59.5,44.7,35.7,42.6,35.7,30.7,86,72,49,30.69,30.51,5,0,6,0.00
2013-1-17,69.9,51.6,41.9,45.4,38.4,33.6,76,62,37,30.52,30.42,3,0,3,0.00
2013-1-18,49.2,48.5,47.9,35.5,34.9,34.4,61,59,57,30.46,30.45,0,0,0,0.00
2013-1-19,69.4,53.1,46.8,46.8,39.5,31.5,72,61,41,30.48,30.42,2,0,2,0.00
2013-1-20,70.8,53.3,46.0,45.4,36.1,30.2,68,53,35,30.48,30.38,4,0,4,0.00
2013-1-21,73.9,54.9,46.1,48.1,36.7,28.3,70,51,32,30.44,30.35,4,0,5,0.00
2013-1-22,70.1,57.4,49.8,44.9,33.3,25.1,49,40,24,30.38,30.29,2,0,3,0.00
2013-1-23,62.5,54.4,48.6,53.5,41.7,29.4,100,68,32,30.36,30.23,5,0,7,0.12
2013-1-24,57.2,52.9,49.6,55.9,52.5,49.3,100,99,94,30.46,30.32,0,0,0,0.01
2013-1-25,64.8,55.4,49.2,61.0,54.3,49.1,100,97,81,30.46,30.32,6,0,6,0.04
2013-1-26,52.3,48.1,45.1,49.5,46.3,42.2,100,94,80,30.37,30.31,10,2,11,0.04
2013-1-27,52.4,44.6,39.4,43.8,41.6,39.0,99,90,65,30.46,30.36,9,1,11,0.02
2013-1-28,54.3,44.4,37.1,46.8,42.1,36.9,100,92,74,30.59,30.45,9,1,11,0.00
2013-1-29,55.1,44.8,38.9,48.6,43.3,38.9,100,95,78,30.64,30.56,6,0,7,0.00
2013-1-30,63.9,52.8,42.5,51.5,45.1,40.6,100,76,51,30.62,30.54,11,1,14,0.00
2013-1-31,67.8,52.0,44.7,51.0,44.9,40.6,92,78,47,30.55,30.45,4,0,6,0.00